KPIB

Hattiesburg-Laurel Regional Airport

Airport
ICAO code
KPIB
IATA Code
PIB
Summary
ICAO Region
NAM
ICAO Territory
Location

Hattiesburg, Mississippi

Serving
Laurel
Elevation
298 ft
Coordinates
31° 27' 60" N , 89° 19' 60" W
KCC
Metar
KPIB 251417Z AUTO VRB04KT 10SM OVC015 28/24 A2995 RMK AO2 $

Hattiesburg-Laurel Regional Airport is a public airport located 9 nm north of Hattiesburg and 23 nm southwest of Laurel in Jones County, Mississippi, USA.

Runways

Designator Length Width Surface Rops
18/36 1982 46 ASP Yes/Yes

Airport map

Aerial View

SKYbrary Partners:

Safety knowledge contributed by: